Terminal Aerodrome Forecast
Issued by NWS Wilmington, OH

Current Version | Previous Version | Graphics & Text | Print | Product List | Glossary On
Versions: 1 2 3 4 5 6 7 8 9 10 11 12 13 14 15 16 17 18 19 20 21 22 23 24 25 26
000
FTUS41 KILN 221700
TAFDAY
TAF
KDAY 221737Z 2218/2318 33007KT P6SM OVC018
     FM230000 35004KT P6SM OVC016
     FM231200 VRB03KT P6SM SCT016 BKN250=

USA.gov is the U.S. government's official web portal to all federal, state and local government web resources and services.